createdAt,value
2023-05-01T00:01:38.234Z,2.84
2023-05-01T00:04:06.264Z,2.82
2023-05-01T00:06:34.251Z,2.77
2023-05-01T00:09:02.928Z,2.74
2023-05-01T00:11:30.705Z,2.73
2023-05-01T00:13:58.689Z,2.70
2023-05-01T00:16:26.460Z,2.67
2023-05-01T00:18:55.153Z,2.63
2023-05-01T00:21:22.899Z,2.60
2023-05-01T00:23:50.639Z,2.56
2023-05-01T00:26:18.452Z,2.54
2023-05-01T00:28:47.793Z,2.50
2023-05-01T00:31:15.635Z,2.46
2023-05-01T00:33:43.509Z,2.43
2023-05-01T00:36:11.500Z,2.42
2023-05-01T00:38:39.524Z,2.39
2023-05-01T00:41:07.393Z,2.39
2023-05-01T00:43:36.412Z,2.37
2023-05-01T00:46:04.561Z,2.33
2023-05-01T00:48:32.426Z,2.30
2023-05-01T00:51:01.122Z,2.28
2023-05-01T00:53:29.473Z,2.26
2023-05-01T00:55:58.704Z,2.24
2023-05-01T00:58:26.812Z,2.22
2023-05-01T01:00:55.412Z,2.20
2023-05-01T01:03:23.183Z,2.17
2023-05-01T01:06:13.844Z,2.14
2023-05-01T01:09:09.903Z,2.11
2023-05-01T01:11:44.489Z,2.07
2023-05-01T01:14:20.647Z,2.05
2023-05-01T01:16:59.418Z,2.02
2023-05-01T01:19:45.561Z,1.98
2023-05-01T01:22:19.909Z,1.94
2023-05-01T01:25:11.185Z,1.93
2023-05-01T01:28:13.437Z,1.87
2023-05-01T01:31:05.134Z,1.81
2023-05-01T01:33:45.223Z,1.77
2023-05-01T01:36:20.341Z,1.76
2023-05-01T01:39:09.185Z,1.74
2023-05-01T01:41:38.593Z,1.68
2023-05-01T01:44:17.675Z,1.63
2023-05-01T01:46:45.957Z,1.61
2023-05-01T01:49:23.314Z,1.59
2023-05-01T01:51:53.846Z,1.55
2023-05-01T01:54:31.455Z,1.51
2023-05-01T01:57:02.631Z,1.46
2023-05-01T01:59:33.635Z,1.42
2023-05-01T02:02:03.965Z,1.40
2023-05-01T02:04:32.976Z,1.37
2023-05-01T02:07:01.389Z,1.35
2023-05-01T02:09:30.722Z,1.31
2023-05-01T02:12:00.323Z,1.30
2023-05-01T02:14:28.590Z,1.27
2023-05-01T02:16:58.756Z,1.22
2023-05-01T02:19:27.191Z,1.20
2023-05-01T02:21:57.680Z,1.18
2023-05-01T02:24:28.609Z,1.16
2023-05-01T02:27:06.622Z,1.14
2023-05-01T02:29:35.225Z,1.12
2023-05-01T02:32:03.766Z,1.10
2023-05-01T02:34:34.838Z,1.09
2023-05-01T02:37:06.355Z,1.07
2023-05-01T02:39:35.143Z,1.06
2023-05-01T02:42:04.566Z,1.05
2023-05-01T02:44:39.954Z,1.03
2023-05-01T02:47:09.311Z,1.02
2023-05-01T02:49:39.402Z,1.00
2023-05-01T02:52:07.553Z,0.99
2023-05-01T02:54:35.993Z,0.96
2023-05-01T02:57:05.424Z,0.94
2023-05-01T02:59:33.979Z,0.90
2023-05-01T03:02:02.027Z,0.89
2023-05-01T03:04:30.076Z,0.84
2023-05-01T03:06:57.969Z,0.84
2023-05-01T03:09:26.379Z,0.83
2023-05-01T03:11:54.309Z,0.83
2023-05-01T03:14:22.320Z,0.81
2023-05-01T03:16:50.166Z,0.77
2023-05-01T03:19:17.922Z,0.77
2023-05-01T03:21:45.838Z,0.76
2023-05-01T03:24:13.579Z,0.76
2023-05-01T03:26:41.320Z,0.76
2023-05-01T03:29:09.996Z,0.76
2023-05-01T03:31:38.005Z,0.77
2023-05-01T03:34:06.469Z,0.79
2023-05-01T03:36:34.487Z,0.81
2023-05-01T03:39:02.391Z,0.83
2023-05-01T03:42:08.759Z,0.84
2023-05-01T03:44:41.457Z,0.86
2023-05-01T03:47:10.358Z,0.89
2023-05-01T03:49:43.642Z,0.94
2023-05-01T03:52:12.814Z,1.01
2023-05-01T03:54:40.801Z,1.07
2023-05-01T03:57:28.955Z,1.16
2023-05-01T03:59:59.219Z,1.24
2023-05-01T04:02:27.997Z,1.32
2023-05-01T04:04:56.181Z,1.40
2023-05-01T04:07:24.731Z,1.48
2023-05-01T04:09:52.683Z,1.56
2023-05-01T04:12:20.612Z,1.64
2023-05-01T04:14:48.346Z,1.71
2023-05-01T04:17:16.352Z,1.79
2023-05-01T04:19:44.414Z,1.87
2023-05-01T04:22:12.148Z,1.95
2023-05-01T04:24:40.876Z,2.05
2023-05-01T04:27:09.840Z,2.17
2023-05-01T04:29:37.723Z,2.29
2023-05-01T04:32:05.852Z,2.41
2023-05-01T04:34:33.817Z,2.55
2023-05-01T04:37:03.095Z,2.74
2023-05-01T04:39:31.074Z,2.99
2023-05-01T04:41:59.203Z,3.21
2023-05-01T04:44:27.304Z,3.47
2023-05-01T04:46:55.410Z,3.72
2023-05-01T04:49:23.483Z,3.92
2023-05-01T04:51:51.210Z,4.11
2023-05-01T04:54:19.442Z,4.28
2023-05-01T04:56:47.558Z,4.45
2023-05-01T04:59:15.534Z,4.65
2023-05-01T05:01:43.678Z,4.83
2023-05-01T05:04:11.735Z,5.00
2023-05-01T05:06:39.940Z,5.21
2023-05-01T05:09:11.211Z,5.41
2023-05-01T05:11:39.095Z,5.58
2023-05-01T05:14:11.889Z,5.72
2023-05-01T05:16:39.964Z,5.82
2023-05-01T05:19:07.741Z,5.94
2023-05-01T05:21:38.225Z,6.08
2023-05-01T05:24:06.134Z,6.20
2023-05-01T05:26:33.993Z,6.33
2023-05-01T05:29:04.236Z,6.45
2023-05-01T05:31:32.129Z,6.53
2023-05-01T05:34:00.518Z,6.65
2023-05-01T05:36:28.864Z,6.77
2023-05-01T05:38:59.424Z,6.91
2023-05-01T05:41:27.230Z,7.08
2023-05-01T05:43:58.643Z,7.23
2023-05-01T05:46:26.857Z,7.36
2023-05-01T05:48:54.766Z,7.50
2023-05-01T05:51:23.016Z,7.65
2023-05-01T05:53:50.990Z,7.77
2023-05-01T05:56:19.377Z,7.91
2023-05-01T05:58:47.244Z,8.02
2023-05-01T06:01:16.725Z,8.15
2023-05-01T06:03:44.759Z,8.23
2023-05-01T06:06:13.219Z,8.35
2023-05-01T06:08:41.102Z,8.46
2023-05-01T06:11:11.653Z,8.54
2023-05-01T06:13:39.477Z,8.66
2023-05-01T06:16:07.867Z,8.77
2023-05-01T06:18:35.699Z,8.88
2023-05-01T06:21:03.776Z,8.97
2023-05-01T06:23:34.159Z,8.98
2023-05-01T06:26:21.714Z,9.04
2023-05-01T06:28:49.718Z,9.17
2023-05-01T06:31:17.491Z,9.32
2023-05-01T06:33:49.774Z,9.46
2023-05-01T06:36:23.693Z,9.56
2023-05-01T06:38:51.453Z,9.65
2023-05-01T06:41:19.550Z,9.73
2023-05-01T06:43:47.445Z,9.80
2023-05-01T06:46:17.196Z,9.96
2023-05-01T06:48:45.340Z,10.14
2023-05-01T06:51:16.336Z,10.30
2023-05-01T06:53:44.107Z,10.42
2023-05-01T06:56:11.925Z,10.55
2023-05-01T06:58:40.336Z,10.62
2023-05-01T07:01:09.954Z,10.77
2023-05-01T07:03:38.883Z,10.93
2023-05-01T07:06:07.297Z,11.06
2023-05-01T07:08:35.263Z,11.12
2023-05-01T07:11:03.193Z,11.16
2023-05-01T07:13:31.055Z,11.29
2023-05-01T07:15:58.919Z,11.42
2023-05-01T07:18:26.807Z,11.48
2023-05-01T07:20:55.026Z,11.63
2023-05-01T07:23:23.768Z,11.72
2023-05-01T07:25:52.951Z,11.74
2023-05-01T07:28:21.864Z,11.83
2023-05-01T07:30:49.940Z,11.87
2023-05-01T07:33:17.740Z,11.88
2023-05-01T07:35:45.671Z,11.89
2023-05-01T07:38:15.992Z,11.89
2023-05-01T07:40:44.155Z,12.02
2023-05-01T07:43:12.031Z,12.12
2023-05-01T07:45:42.493Z,12.20
2023-05-01T07:48:11.852Z,12.29
2023-05-01T07:50:40.530Z,12.41
2023-05-01T07:53:08.437Z,12.52
2023-05-01T07:55:36.296Z,12.66
2023-05-01T07:58:04.094Z,12.74
2023-05-01T08:00:32.029Z,12.74
2023-05-01T08:02:59.803Z,12.86
2023-05-01T08:05:27.698Z,12.92
2023-05-01T08:07:55.644Z,13.07
2023-05-01T08:10:23.579Z,13.05
2023-05-01T08:12:51.434Z,13.00
2023-05-01T08:15:20.108Z,13.15
2023-05-01T08:17:48.139Z,13.32
2023-05-01T08:20:15.896Z,13.37
2023-05-01T08:22:43.697Z,13.55
2023-05-01T08:25:11.458Z,13.74
2023-05-01T08:27:39.760Z,13.93
2023-05-01T08:30:08.163Z,14.02
2023-05-01T08:32:35.950Z,14.03
2023-05-01T08:35:04.081Z,14.09
2023-05-01T08:37:31.893Z,14.15
2023-05-01T08:39:59.680Z,14.29
2023-05-01T08:42:30.407Z,14.43
2023-05-01T08:45:01.144Z,14.54
2023-05-01T08:47:30.500Z,14.68
2023-05-01T08:49:59.724Z,14.88
2023-05-01T08:52:29.010Z,15.09
2023-05-01T08:54:57.542Z,15.38
2023-05-01T08:57:26.493Z,15.67
2023-05-01T08:59:56.591Z,15.98
2023-05-01T09:02:25.572Z,16.29
2023-05-01T09:04:54.244Z,16.60
2023-05-01T09:07:22.459Z,16.86
2023-05-01T09:09:50.427Z,17.00
2023-05-01T09:12:26.005Z,17.35
2023-05-01T09:14:54.979Z,17.58
2023-05-01T09:17:24.177Z,17.68
2023-05-01T09:19:52.638Z,17.90
2023-05-01T09:22:21.332Z,18.13
2023-05-01T09:24:49.338Z,18.24
2023-05-01T09:27:17.112Z,18.47
2023-05-01T09:29:45.924Z,18.85
2023-05-01T09:32:20.885Z,19.52
2023-05-01T09:34:49.496Z,19.99
2023-05-01T09:37:29.279Z,20.18
2023-05-01T09:40:14.128Z,20.58
2023-05-01T09:42:51.652Z,20.77
2023-05-01T09:45:19.735Z,20.73
2023-05-01T09:47:48.762Z,20.96
2023-05-01T09:50:34.362Z,21.10
2023-05-01T09:53:05.094Z,20.80
2023-05-01T09:55:33.874Z,20.86
2023-05-01T09:58:02.224Z,20.98
2023-05-01T10:00:30.339Z,21.10
2023-05-01T10:02:58.554Z,21.14
2023-05-01T10:05:27.047Z,21.11
2023-05-01T10:08:03.807Z,20.68
2023-05-01T10:10:31.730Z,20.81
2023-05-01T10:13:15.415Z,21.43
2023-05-01T10:15:44.530Z,21.92
2023-05-01T10:18:14.377Z,22.07
2023-05-01T10:20:42.769Z,22.14
2023-05-01T10:23:11.350Z,22.28
2023-05-01T10:25:42.354Z,22.34
2023-05-01T10:28:11.894Z,22.33
2023-05-01T10:30:41.642Z,22.72
2023-05-01T10:33:12.685Z,22.95
2023-05-01T10:35:44.299Z,22.68
2023-05-01T10:38:19.947Z,22.61
2023-05-01T10:40:51.677Z,22.66
2023-05-01T10:43:30.648Z,22.82
2023-05-01T10:46:07.782Z,22.65
2023-05-01T10:48:38.895Z,22.50
2023-05-01T10:51:22.419Z,22.48
2023-05-01T10:54:21.305Z,22.18
2023-05-01T10:56:49.227Z,22.00
2023-05-01T10:59:17.112Z,22.42
2023-05-01T11:01:47.697Z,22.55
2023-05-01T11:04:27.445Z,22.85
2023-05-01T11:06:58.338Z,22.71
2023-05-01T11:09:43.709Z,22.81
2023-05-01T11:12:13.250Z,22.74
2023-05-01T11:15:08.034Z,22.46
2023-05-01T11:17:42.322Z,22.28
2023-05-01T11:20:34.654Z,22.23
2023-05-01T11:23:02.450Z,22.45
2023-05-01T11:25:31.734Z,22.58
2023-05-01T11:28:01.953Z,22.50
2023-05-01T11:30:40.204Z,22.21
2023-05-01T11:33:10.395Z,22.13
2023-05-01T11:35:39.197Z,22.25
2023-05-01T11:38:17.057Z,22.63
2023-05-01T11:40:46.071Z,22.47
2023-05-01T11:43:13.894Z,22.23
2023-05-01T11:45:41.652Z,22.18
2023-05-01T11:48:18.595Z,22.03
2023-05-01T11:50:46.463Z,21.88
2023-05-01T11:53:18.704Z,21.67
2023-05-01T11:55:46.676Z,21.59
2023-05-01T11:58:15.868Z,21.66
2023-05-01T12:00:46.107Z,21.44
2023-05-01T12:03:15.657Z,21.26
2023-05-01T12:05:45.373Z,21.04
2023-05-01T12:08:19.616Z,20.92
2023-05-01T12:10:52.704Z,20.78
2023-05-01T12:13:21.952Z,20.59
2023-05-01T12:15:51.838Z,20.54
2023-05-01T12:18:24.020Z,20.43
2023-05-01T12:20:54.303Z,20.32
2023-05-01T12:23:39.540Z,20.18
2023-05-01T12:26:18.248Z,20.15
2023-05-01T12:29:06.782Z,19.95
2023-05-01T12:31:36.788Z,19.85
2023-05-01T12:34:07.765Z,19.76
2023-05-01T12:36:36.732Z,19.71
2023-05-01T12:39:07.245Z,19.61
2023-05-01T12:41:43.049Z,19.43
2023-05-01T12:44:16.967Z,19.26
2023-05-01T12:46:47.614Z,19.25
2023-05-01T12:49:20.647Z,19.20
2023-05-01T12:51:54.238Z,19.14
2023-05-01T12:54:28.550Z,19.03
2023-05-01T12:57:15.517Z,19.10
2023-05-01T12:59:45.404Z,19.21
2023-05-01T13:02:16.294Z,19.30
2023-05-01T13:04:46.445Z,19.49
2023-05-01T13:07:20.706Z,19.57
2023-05-01T13:09:54.394Z,19.43
2023-05-01T13:12:22.844Z,19.33
2023-05-01T13:14:53.612Z,19.42
2023-05-01T13:17:26.946Z,19.56
2023-05-01T13:20:00.627Z,19.66
2023-05-01T13:22:33.110Z,19.61
2023-05-01T13:25:03.909Z,19.51
2023-05-01T13:27:32.716Z,19.35
2023-05-01T13:30:01.177Z,19.36
2023-05-01T13:32:29.300Z,19.31
2023-05-01T13:35:03.409Z,19.22
2023-05-01T13:37:32.627Z,19.21
2023-05-01T13:40:00.556Z,19.25
2023-05-01T13:42:28.549Z,19.24
2023-05-01T13:44:57.561Z,19.22
2023-05-01T13:47:27.513Z,19.21
2023-05-01T13:49:55.939Z,19.14
2023-05-01T13:52:24.522Z,19.17
2023-05-01T13:54:55.895Z,19.27
2023-05-01T13:57:23.872Z,19.27
2023-05-01T13:59:51.645Z,19.16
2023-05-01T14:02:29.884Z,19.05
2023-05-01T14:05:00.143Z,19.10
2023-05-01T14:07:28.889Z,19.08
2023-05-01T14:09:58.493Z,19.04
2023-05-01T14:12:32.690Z,18.97
2023-05-01T14:15:02.126Z,18.94
2023-05-01T14:17:31.849Z,19.12
2023-05-01T14:19:59.735Z,19.37
2023-05-01T14:22:48.106Z,19.46
2023-05-01T14:25:31.301Z,19.29
2023-05-01T14:28:01.165Z,19.14
2023-05-01T14:30:34.125Z,19.04
2023-05-01T14:33:03.577Z,19.03
2023-05-01T14:35:31.601Z,19.02
2023-05-01T14:38:11.658Z,19.02
2023-05-01T14:40:43.569Z,19.04
2023-05-01T14:43:16.005Z,18.93
2023-05-01T14:45:49.792Z,18.79
2023-05-01T14:48:23.249Z,18.69
2023-05-01T14:50:51.903Z,18.63
2023-05-01T14:53:19.694Z,18.67
2023-05-01T14:55:51.354Z,18.75
2023-05-01T14:58:19.129Z,18.75
2023-05-01T15:00:46.930Z,18.74
2023-05-01T15:03:14.941Z,18.70
2023-05-01T15:05:44.780Z,18.73
2023-05-01T15:08:12.533Z,18.85
2023-05-01T15:10:40.387Z,19.02
2023-05-01T15:13:08.473Z,19.23
2023-05-01T15:15:36.455Z,19.35
2023-05-01T15:18:04.330Z,19.39
2023-05-01T15:20:32.128Z,19.35
2023-05-01T15:22:59.920Z,19.32
2023-05-01T15:25:27.839Z,19.21
2023-05-01T15:27:55.765Z,19.21
2023-05-01T15:30:23.914Z,19.18
2023-05-01T15:32:52.034Z,18.98
2023-05-01T15:35:21.449Z,18.81
2023-05-01T15:37:50.164Z,18.70
2023-05-01T15:40:18.116Z,18.58
2023-05-01T15:42:48.121Z,18.46
2023-05-01T15:45:16.715Z,18.29
2023-05-01T15:47:44.710Z,18.16
2023-05-01T15:50:12.816Z,18.07
2023-05-01T15:52:42.258Z,17.96
2023-05-01T15:55:10.012Z,17.85
2023-05-01T15:57:37.941Z,17.75
2023-05-01T16:00:08.386Z,17.64
2023-05-01T16:02:36.467Z,17.55
2023-05-01T16:05:05.104Z,17.46
2023-05-01T16:07:34.174Z,17.38
2023-05-01T16:10:02.484Z,17.30
2023-05-01T16:12:31.181Z,17.22
2023-05-01T16:15:02.293Z,17.18
2023-05-01T16:17:33.472Z,17.14
2023-05-01T16:20:02.609Z,17.08
2023-05-01T16:22:32.740Z,17.03
2023-05-01T16:25:01.309Z,17.02
2023-05-01T16:27:29.093Z,16.96
2023-05-01T16:29:57.845Z,16.91
2023-05-01T16:32:26.675Z,16.89
2023-05-01T16:34:54.536Z,16.81
2023-05-01T16:37:25.492Z,16.73
2023-05-01T16:39:53.280Z,16.70
2023-05-01T16:42:21.290Z,16.61
2023-05-01T16:44:49.321Z,16.55
2023-05-01T16:47:17.546Z,16.49
2023-05-01T16:49:46.631Z,16.44
2023-05-01T16:52:15.787Z,16.39
2023-05-01T16:54:43.515Z,16.32
2023-05-01T16:57:11.308Z,16.24
2023-05-01T16:59:39.111Z,16.17
2023-05-01T17:02:06.973Z,16.11
2023-05-01T17:04:34.816Z,16.05
2023-05-01T17:07:02.846Z,16.00
2023-05-01T17:09:31.220Z,15.90
2023-05-01T17:11:59.246Z,15.83
2023-05-01T17:14:29.026Z,15.73
2023-05-01T17:17:00.037Z,15.65
2023-05-01T17:19:28.092Z,15.58
2023-05-01T17:21:57.976Z,15.50
2023-05-01T17:24:27.093Z,15.42
2023-05-01T17:26:55.538Z,15.35
2023-05-01T17:29:24.094Z,15.26
2023-05-01T17:31:51.891Z,15.19
2023-05-01T17:34:19.841Z,15.12
2023-05-01T17:36:47.852Z,15.04
2023-05-01T17:39:16.205Z,14.93
2023-05-01T17:41:44.291Z,14.86
2023-05-01T17:44:12.043Z,14.77
2023-05-01T17:46:39.818Z,14.68
2023-05-01T17:49:07.765Z,14.56
2023-05-01T17:51:35.950Z,14.48
2023-05-01T17:54:03.822Z,14.34
2023-05-01T17:56:31.684Z,14.25
2023-05-01T17:59:00.059Z,14.13
2023-05-01T18:01:29.376Z,14.04
2023-05-01T18:03:57.673Z,13.94
2023-05-01T18:06:25.729Z,13.84
2023-05-01T18:08:53.683Z,13.76
2023-05-01T18:11:21.478Z,13.67
2023-05-01T18:13:49.342Z,13.57
2023-05-01T18:16:19.075Z,13.49
2023-05-01T18:18:49.978Z,13.41
2023-05-01T18:21:17.825Z,13.26
2023-05-01T18:23:48.481Z,13.15
2023-05-01T18:26:16.911Z,13.03
2023-05-01T18:28:44.887Z,12.96
2023-05-01T18:31:14.276Z,12.89
2023-05-01T18:33:42.303Z,12.83
2023-05-01T18:36:10.682Z,12.73
2023-05-01T18:38:38.654Z,12.68
2023-05-01T18:41:06.845Z,12.59
2023-05-01T18:43:34.874Z,12.53
2023-05-01T18:46:02.785Z,12.47
2023-05-01T18:48:31.094Z,12.43
2023-05-01T18:51:08.461Z,12.37
2023-05-01T18:53:37.128Z,12.30
2023-05-01T18:56:05.974Z,12.24
2023-05-01T18:58:33.781Z,12.22
2023-05-01T19:01:01.501Z,12.16
2023-05-01T19:03:29.279Z,12.09
2023-05-01T19:05:57.094Z,12.05
2023-05-01T19:08:24.878Z,11.99
2023-05-01T19:10:53.091Z,11.93
2023-05-01T19:13:20.775Z,11.87
2023-05-01T19:15:48.542Z,11.81
2023-05-01T19:18:16.876Z,11.78
2023-05-01T19:20:45.861Z,11.73
2023-05-01T19:23:13.670Z,11.69
2023-05-01T19:25:41.523Z,11.62
2023-05-01T19:28:09.393Z,11.61
2023-05-01T19:30:38.360Z,11.55
2023-05-01T19:33:06.895Z,11.50
2023-05-01T19:35:35.405Z,11.45
2023-05-01T19:38:03.159Z,11.41
2023-05-01T19:40:31.783Z,11.40
2023-05-01T19:42:59.651Z,11.36
2023-05-01T19:45:27.912Z,11.32
2023-05-01T19:47:55.910Z,11.29
2023-05-01T19:50:23.722Z,11.26
2023-05-01T19:52:51.526Z,11.26
2023-05-01T19:55:19.327Z,11.21
2023-05-01T19:57:47.099Z,11.20
2023-05-01T20:00:15.027Z,11.15
2023-05-01T20:02:42.961Z,11.12
2023-05-01T20:05:12.964Z,11.11
2023-05-01T20:07:41.345Z,11.09
2023-05-01T20:10:09.770Z,11.09
2023-05-01T20:12:38.315Z,11.06
2023-05-01T20:15:06.534Z,11.03
2023-05-01T20:17:35.289Z,11.00
2023-05-01T20:20:03.890Z,10.94
2023-05-01T20:22:31.652Z,10.90
2023-05-01T20:24:59.400Z,10.84
2023-05-01T20:27:27.474Z,10.80
2023-05-01T20:29:55.270Z,10.76
2023-05-01T20:32:23.089Z,10.70
2023-05-01T20:34:52.536Z,10.64
2023-05-01T20:37:20.208Z,10.60
2023-05-01T20:39:48.584Z,10.52
2023-05-01T20:42:16.564Z,10.47
2023-05-01T20:44:44.868Z,10.42
2023-05-01T20:47:14.252Z,10.36
2023-05-01T20:49:41.978Z,10.29
2023-05-01T20:52:10.152Z,10.22
2023-05-01T20:54:37.974Z,10.15
2023-05-01T20:57:05.778Z,10.09
2023-05-01T20:59:34.132Z,10.03
2023-05-01T21:02:05.649Z,9.94
2023-05-01T21:04:33.575Z,9.83
2023-05-01T21:07:01.334Z,9.77
2023-05-01T21:09:29.216Z,9.70
2023-05-01T21:11:56.952Z,9.64
2023-05-01T21:14:24.795Z,9.57
2023-05-01T21:16:53.609Z,9.49
2023-05-01T21:19:21.604Z,9.42
2023-05-01T21:21:49.881Z,9.33
2023-05-01T21:24:25.703Z,9.24
2023-05-01T21:26:54.580Z,9.14
2023-05-01T21:29:22.495Z,9.07
2023-05-01T21:31:50.277Z,9.01
2023-05-01T21:34:18.841Z,8.94
2023-05-01T21:36:46.667Z,8.90
2023-05-01T21:39:15.690Z,8.85
2023-05-01T21:41:43.506Z,8.80
2023-05-01T21:44:12.309Z,8.76
2023-05-01T21:46:41.668Z,8.74
2023-05-01T21:49:12.620Z,8.74
2023-05-01T21:51:40.963Z,8.70
2023-05-01T21:54:08.743Z,8.71
2023-05-01T21:56:36.517Z,8.71
2023-05-01T21:59:05.596Z,8.70
2023-05-01T22:01:33.361Z,8.73
2023-05-01T22:04:01.335Z,8.73
2023-05-01T22:06:29.735Z,8.74
2023-05-01T22:08:58.689Z,8.74
2023-05-01T22:11:26.522Z,8.73
2023-05-01T22:13:54.259Z,8.73
2023-05-01T22:16:22.011Z,8.73
2023-05-01T22:18:50.554Z,8.72
2023-05-01T22:21:18.381Z,8.71
2023-05-01T22:23:46.123Z,8.70
2023-05-01T22:26:13.879Z,8.67
2023-05-01T22:28:42.186Z,8.64
2023-05-01T22:31:09.943Z,8.60
2023-05-01T22:33:37.660Z,8.57
2023-05-01T22:36:07.541Z,8.55
2023-05-01T22:38:36.064Z,8.51
2023-05-01T22:41:04.047Z,8.49
2023-05-01T22:43:31.795Z,8.47
2023-05-01T22:46:00.397Z,8.42
2023-05-01T22:48:28.296Z,8.39
2023-05-01T22:50:56.216Z,8.37
2023-05-01T22:53:24.178Z,8.32
2023-05-01T22:55:52.418Z,8.30
2023-05-01T22:58:20.382Z,8.26
2023-05-01T23:00:48.283Z,8.21
2023-05-01T23:03:16.273Z,8.18
2023-05-01T23:05:44.576Z,8.15
2023-05-01T23:08:12.693Z,8.11
2023-05-01T23:10:42.442Z,8.08
2023-05-01T23:13:22.593Z,8.05
2023-05-01T23:15:53.686Z,8.03
2023-05-01T23:18:30.061Z,8.01
2023-05-01T23:20:58.481Z,7.99
2023-05-01T23:23:32.713Z,7.97
2023-05-01T23:26:01.139Z,7.96
2023-05-01T23:28:31.826Z,7.95
2023-05-01T23:31:04.398Z,7.92
2023-05-01T23:33:35.740Z,7.93
2023-05-01T23:36:04.099Z,7.90
2023-05-01T23:38:31.800Z,7.88
2023-05-01T23:40:59.641Z,7.89
2023-05-01T23:43:27.555Z,7.88
2023-05-01T23:45:56.367Z,7.86
2023-05-01T23:48:24.104Z,7.87
2023-05-01T23:50:52.019Z,7.87
2023-05-01T23:53:20.276Z,7.84
2023-05-01T23:55:48.121Z,7.83
2023-05-01T23:58:16.794Z,7.83
